Long Ashton, United Kingdom
Current Conditions -  °F | °C
As of 2:20 PM on Friday 28 Nov 2014 (Local Time) from EGGD Reporting Station
Broken Clouds Broken Clouds  
Wind Chill: 50°   Ceiling: 1100
Heat Index: 50°   Visibility: 5mi
Dew Point: 48°   Wind: 14mph
Humidity: 94%   Direction: 60°ENE
Pressure: 29.56"   Gusts: NA
Location:  51.43°N, 2.66°W
Report Text: EGGD 281420Z 06012KT 8000 BKN011 10/09 Q1001
Loading
Personal Weather Stations






























Interactive Weather Map New forecast layout! Learn more

10-Day Weather Forecast

Advertisements
Track Severe Weather on mobile